Time;durP1;ratioP1;P1;durP2;ratioP2;P2;SDS_P1;SDS_P2;PMS_P1;PMS_P2;Temp;Humidity;BMP_temperature;BMP_pressure;BME280_temperature;BME280_humidity;BME280_pressure;Samples;Min_cycle;Max_cycle;Signal;HPM_P1;HPM_P2
2022/07/31 00:00:58;;;;;;;6.50;3.67;;;30.00;94.40;;;;;;5151309;27;20042;-71
2022/07/31 00:03:26;;;;;;;5.45;4.10;;;30.00;94.40;;;;;;5151233;27;20433;-71
2022/07/31 00:05:53;;;;;;;9.23;4.90;;;30.00;94.50;;;;;;5132535;27;20350;-71
2022/07/31 00:08:21;;;;;;;8.60;4.38;;;30.00;94.50;;;;;;5132728;27;20145;-72
2022/07/31 00:10:48;;;;;;;8.00;4.30;;;30.00;94.50;;;;;;5115991;27;20099;-71
2022/07/31 00:13:16;;;;;;;6.55;4.20;;;30.00;94.50;;;;;;5151300;27;20122;-72
2022/07/31 00:15:43;;;;;;;5.25;3.55;;;30.00;94.60;;;;;;5151063;27;20046;-71
2022/07/31 00:18:11;;;;;;;7.47;3.70;;;29.90;94.60;;;;;;5115364;27;20438;-71
2022/07/31 00:20:38;;;;;;;5.28;4.15;;;29.90;94.60;;;;;;5132737;27;20046;-71
2022/07/31 00:23:06;;;;;;;6.88;3.95;;;29.90;94.60;;;;;;5115677;27;20049;-72
2022/07/31 00:25:33;;;;;;;5.78;4.43;;;29.90;94.60;;;;;;5150083;27;20575;-72
2022/07/31 00:28:01;;;;;;;5.65;3.63;;;29.90;94.60;;;;;;5115500;27;20484;-71
2022/07/31 00:30:29;;;;;;;6.55;4.22;;;29.90;94.60;;;;;;5132578;27;20051;-71
2022/07/31 00:32:57;;;;;;;12.55;4.55;;;29.90;94.70;;;;;;5132230;27;20078;-72
2022/07/31 00:35:24;;;;;;;8.38;4.40;;;29.80;94.70;;;;;;5098400;27;20047;-71
2022/07/31 00:37:52;;;;;;;7.20;4.18;;;29.80;94.70;;;;;;5115977;27;20043;-72
2022/07/31 00:40:21;;;;;;;5.85;3.92;;;29.80;94.80;;;;;;5114608;27;20104;-71
2022/07/31 00:42:49;;;;;;;7.38;4.70;;;29.80;94.80;;;;;;5098187;27;20449;-71
2022/07/31 00:45:16;;;;;;;6.05;4.32;;;29.80;94.80;;;;;;5132256;27;20173;-72
2022/07/31 00:47:44;;;;;;;9.35;4.35;;;29.80;94.80;;;;;;5115311;27;20492;-71
2022/07/31 00:50:12;;;;;;;7.00;4.30;;;29.80;94.80;;;;;;5115006;27;20131;-71
2022/07/31 00:52:41;;;;;;;4.55;3.75;;;29.80;94.90;;;;;;5115641;27;20133;-72
2022/07/31 00:55:09;;;;;;;9.10;4.00;;;29.80;94.90;;;;;;5136454;27;20055;-72
2022/07/31 00:57:36;;;;;;;8.18;4.20;;;29.80;95.00;;;;;;5135276;27;20136;-71
2022/07/31 01:00:05;;;;;;;6.75;4.07;;;29.80;95.00;;;;;;5122658;27;20572;-71
2022/07/31 01:02:33;;;;;;;5.97;3.80;;;29.70;95.10;;;;;;5156982;27;20190;-71
2022/07/31 01:05:01;;;;;;;5.75;4.22;;;29.70;95.20;;;;;;5157399;27;20560;-72
2022/07/31 01:07:28;;;;;;;5.82;3.55;;;29.70;95.30;;;;;;5139898;27;20073;-71
2022/07/31 01:09:58;;;;;;;6.28;4.05;;;29.70;95.30;;;;;;5156967;27;20038;-71
2022/07/31 01:12:32;;;;;;;8.68;3.78;;;29.70;95.30;;;;;;5122638;27;20056;-71
2022/07/31 01:15:04;;;;;;;8.90;5.03;;;29.70;95.30;;;;;;5139753;27;20046;-71
2022/07/31 01:17:33;;;;;;;6.40;4.05;;;29.60;95.30;;;;;;5156669;27;20030;-72
2022/07/31 01:20:01;;;;;;;9.60;4.07;;;29.60;95.30;;;;;;5156727;27;20041;-71
2022/07/31 01:22:54;;;;;;;6.10;3.58;;;29.60;95.30;;;;;;5156943;27;20137;-71
2022/07/31 01:25:37;;;;;;;5.85;4.13;;;29.60;95.40;;;;;;5136356;27;20050;-71
2022/07/31 01:29:00;;;;;;;7.03;4.47;;;29.50;95.40;;;;;;5119027;27;20765;-72
2022/07/31 01:31:40;;;;;;;8.57;3.92;;;29.50;95.50;;;;;;5118801;27;20068;-71
2022/07/31 01:34:21;;;;;;;5.95;3.17;;;29.50;95.50;;;;;;5135461;27;20445;-71
2022/07/31 01:36:58;;;;;;;6.07;3.63;;;29.50;95.40;;;;;;5118800;27;20480;-71
2022/07/31 01:39:27;;;;;;;7.88;3.88;;;29.50;95.40;;;;;;5135131;27;20055;-72
2022/07/31 01:41:56;;;;;;;9.05;4.95;;;29.50;95.50;;;;;;5135334;27;20070;-73
2022/07/31 01:44:25;;;;;;;5.00;3.60;;;29.50;95.50;;;;;;5135646;27;20122;-71
2022/07/31 01:46:55;;;;;;;5.95;3.67;;;29.50;95.60;;;;;;5117761;27;20103;-72
2022/07/31 01:49:25;;;;;;;7.32;4.65;;;29.50;95.70;;;;;;5118146;27;20045;-72
2022/07/31 01:51:53;;;;;;;6.93;4.20;;;29.40;95.60;;;;;;5101004;27;20050;-72
2022/07/31 01:54:21;;;;;;;8.50;3.85;;;29.50;95.80;;;;;;5100974;27;20084;-72
2022/07/31 01:56:51;;;;;;;7.05;4.00;;;29.50;95.80;;;;;;5118602;27;20122;-72
2022/07/31 01:59:20;;;;;;;6.07;3.53;;;29.50;95.90;;;;;;5118355;27;20123;-72
2022/07/31 02:02:08;;;;;;;6.72;3.40;;;29.50;96.00;;;;;;5117941;27;20057;-72
2022/07/31 02:04:36;;;;;;;6.00;3.50;;;29.40;96.00;;;;;;5116890;27;20229;-72
2022/07/31 02:07:07;;;;;;;5.82;4.28;;;29.40;96.10;;;;;;5118417;27;20067;-71
2022/07/31 02:09:36;;;;;;;4.88;3.80;;;29.40;96.20;;;;;;5118238;27;20054;-72
2022/07/31 02:12:06;;;;;;;8.38;4.65;;;29.40;96.30;;;;;;5117651;27;20213;-71
2022/07/31 02:14:34;;;;;;;9.35;4.53;;;29.40;96.50;;;;;;5134715;27;20407;-72
2022/07/31 02:17:03;;;;;;;7.38;3.50;;;29.40;96.70;;;;;;5117833;27;20137;-72
2022/07/31 02:19:52;;;;;;;5.53;3.60;;;29.30;96.80;;;;;;5123959;27;20099;-73
2022/07/31 02:22:20;;;;;;;5.35;4.43;;;29.40;97.00;;;;;;5117961;27;20396;-72
2022/07/31 02:24:47;;;;;;;8.95;4.07;;;29.30;96.90;;;;;;5119069;27;20047;-72
2022/07/31 02:27:15;;;;;;;7.07;4.03;;;29.30;97.00;;;;;;5155605;27;20042;-72
2022/07/31 02:29:44;;;;;;;14.60;4.18;;;29.40;97.10;;;;;;5138126;27;20054;-72
2022/07/31 02:32:13;;;;;;;7.13;3.97;;;29.30;97.10;;;;;;5137594;27;20049;-72
2022/07/31 02:34:43;;;;;;;4.82;3.10;;;29.40;97.20;;;;;;5155691;27;20046;-72
2022/07/31 02:37:13;;;;;;;6.97;3.97;;;29.30;97.30;;;;;;5138520;27;20054;-71
2022/07/31 02:39:42;;;;;;;5.93;4.07;;;29.30;97.30;;;;;;5152011;27;20047;-71
2022/07/31 02:42:11;;;;;;;7.72;3.67;;;29.40;97.30;;;;;;5151797;27;20050;-71
2022/07/31 02:44:39;;;;;;;6.25;3.80;;;29.30;97.30;;;;;;5117174;27;20092;-71
2022/07/31 02:47:07;;;;;;;7.95;4.03;;;29.30;97.30;;;;;;5134240;27;20484;-72
2022/07/31 02:49:34;;;;;;;6.63;4.15;;;29.30;97.30;;;;;;5117148;27;20047;-73
2022/07/31 02:52:04;;;;;;;8.77;4.53;;;29.30;97.30;;;;;;5151641;27;20079;-72
2022/07/31 02:54:39;;;;;;;5.55;3.70;;;29.30;97.30;;;;;;5117369;27;20043;-71
2022/07/31 02:57:08;;;;;;;10.93;4.43;;;29.30;97.30;;;;;;5151528;27;20114;-72
2022/07/31 02:59:36;;;;;;;11.07;4.35;;;29.30;97.40;;;;;;5133859;27;20077;-72
2022/07/31 03:02:05;;;;;;;5.97;3.35;;;29.30;97.50;;;;;;5141410;27;20043;-72
2022/07/31 03:04:39;;;;;;;5.53;3.92;;;29.30;97.60;;;;;;5113987;27;20055;-72
2022/07/31 03:07:08;;;;;;;8.80;3.85;;;29.30;97.60;;;;;;5130893;27;20039;-72
2022/07/31 03:09:36;;;;;;;5.50;3.65;;;29.30;97.60;;;;;;5114008;27;20054;-71
2022/07/31 03:12:30;;;;;;;10.38;4.30;;;29.30;97.70;;;;;;5126391;27;20077;-72
2022/07/31 03:14:59;;;;;;;6.90;3.50;;;29.30;97.80;;;;;;5129123;27;20169;-71
2022/07/31 03:17:30;;;;;;;8.93;4.50;;;29.30;97.80;;;;;;5097076;27;20100;-72
2022/07/31 03:20:00;;;;;;;9.32;4.32;;;29.30;97.90;;;;;;5112999;27;20042;-71
2022/07/31 03:22:27;;;;;;;6.43;3.60;;;29.30;97.90;;;;;;5130265;27;20114;-72
2022/07/31 03:24:56;;;;;;;8.32;4.38;;;29.30;97.80;;;;;;5130237;27;20043;-71
2022/07/31 03:27:25;;;;;;;11.15;3.70;;;29.20;97.80;;;;;;5096295;27;20100;-72
2022/07/31 03:29:53;;;;;;;8.60;4.20;;;29.30;97.70;;;;;;5129741;27;20142;-73
2022/07/31 03:32:21;;;;;;;6.95;3.90;;;29.20;97.60;;;;;;5113148;27;20118;-72
2022/07/31 03:34:48;;;;;;;11.05;3.80;;;29.20;97.50;;;;;;5112597;27;20051;-72
2022/07/31 03:37:16;;;;;;;7.13;4.28;;;29.20;97.20;;;;;;5095967;27;20381;-72
2022/07/31 03:39:43;;;;;;;7.65;3.90;;;29.20;97.00;;;;;;5095805;27;20103;-72
2022/07/31 03:42:13;;;;;;;7.22;3.30;;;29.20;96.90;;;;;;5113023;27;20047;-72
2022/07/31 03:44:42;;;;;;;7.72;3.92;;;29.10;96.70;;;;;;5095876;27;20043;-72
2022/07/31 03:47:09;;;;;;;10.30;4.10;;;29.20;96.70;;;;;;5095583;27;20077;-72
2022/07/31 03:49:38;;;;;;;10.85;4.80;;;29.20;96.30;;;;;;5095740;27;20046;-72
2022/07/31 03:52:05;;;;;;;10.23;3.83;;;29.10;96.30;;;;;;5095956;27;20590;-72
2022/07/31 03:54:36;;;;;;;8.98;3.72;;;29.10;96.20;;;;;;5096168;27;20074;-72
2022/07/31 03:57:15;;;;;;;5.20;3.67;;;29.10;96.00;;;;;;5129788;27;20035;-72
2022/07/31 03:59:45;;;;;;;5.53;4.00;;;29.10;96.00;;;;;;5112704;27;20514;-71
2022/07/31 04:02:13;;;;;;;8.63;4.10;;;29.10;95.90;;;;;;5095255;27;20134;-72
2022/07/31 04:04:46;;;;;;;6.90;3.35;;;29.10;95.90;;;;;;5115706;27;20047;-72
2022/07/31 04:07:14;;;;;;;6.50;3.35;;;29.10;95.90;;;;;;5095968;27;20047;-71
2022/07/31 04:09:42;;;;;;;6.78;2.97;;;29.10;95.70;;;;;;5094783;27;20043;-71
2022/07/31 04:12:11;;;;;;;6.90;3.83;;;29.10;95.70;;;;;;5112533;27;20039;-72
2022/07/31 04:14:39;;;;;;;7.18;3.80;;;29.10;95.60;;;;;;5112538;27;20050;-72
2022/07/31 04:17:07;;;;;;;6.03;4.07;;;29.20;95.60;;;;;;5129567;27;20130;-72
2022/07/31 04:19:35;;;;;;;7.72;3.78;;;29.20;95.50;;;;;;5112362;27;20050;-72
2022/07/31 04:22:04;;;;;;;7.85;3.97;;;29.20;95.50;;;;;;5129185;27;20047;-72
2022/07/31 04:24:32;;;;;;;10.13;4.63;;;29.20;95.40;;;;;;5129281;27;20031;-72
2022/07/31 04:27:23;;;;;;;5.55;3.85;;;29.30;95.40;;;;;;5104400;27;20526;-72
2022/07/31 04:29:50;;;;;;;7.43;4.30;;;29.30;95.40;;;;;;5095243;27;20074;-71
2022/07/31 04:32:18;;;;;;;9.48;3.63;;;29.40;95.40;;;;;;5129132;27;20401;-72
2022/07/31 04:34:51;;;;;;;6.43;3.50;;;29.40;95.30;;;;;;5130875;27;20498;-72
2022/07/31 04:37:19;;;;;;;7.18;3.63;;;29.50;95.30;;;;;;5129671;27;20055;-71
2022/07/31 04:39:47;;;;;;;9.70;3.67;;;29.50;95.40;;;;;;5111746;28;20357;-72
2022/07/31 04:42:14;;;;;;;6.20;3.88;;;29.40;95.50;;;;;;5111824;28;20035;-72
2022/07/31 04:44:43;;;;;;;8.13;2.97;;;29.50;95.90;;;;;;5128821;28;20046;-72
2022/07/31 04:47:12;;;;;;;6.95;3.78;;;29.50;95.70;;;;;;5129309;28;20492;-72
2022/07/31 04:49:43;;;;;;;7.43;3.60;;;29.60;95.70;;;;;;5111980;28;20137;-71
2022/07/31 04:52:14;;;;;;;7.95;3.67;;;29.60;95.70;;;;;;5128846;28;20096;-71
2022/07/31 04:54:44;;;;;;;7.88;4.18;;;29.60;95.70;;;;;;5111925;28;20054;-71
2022/07/31 04:57:14;;;;;;;7.60;3.33;;;29.60;95.80;;;;;;5113316;28;20107;-71
2022/07/31 04:59:44;;;;;;;8.35;3.30;;;29.70;95.80;;;;;;5095798;28;20382;-71
2022/07/31 05:02:12;;;;;;;7.82;3.17;;;29.70;95.80;;;;;;5111833;28;20051;-71
2022/07/31 05:04:40;;;;;;;6.15;3.03;;;29.90;95.70;;;;;;5128863;28;20051;-72
2022/07/31 05:07:07;;;;;;;8.65;4.30;;;30.00;95.60;;;;;;5095210;28;20135;-71
2022/07/31 05:09:35;;;;;;;8.85;4.25;;;30.00;95.50;;;;;;5111766;28;20051;-72
2022/07/31 05:12:05;;;;;;;10.60;4.38;;;30.10;95.50;;;;;;5094748;28;20047;-72
2022/07/31 05:14:32;;;;;;;6.32;3.00;;;30.30;95.30;;;;;;5128624;28;20122;-72
2022/07/31 05:17:00;;;;;;;6.32;2.92;;;30.30;95.00;;;;;;5111865;28;20576;-73
2022/07/31 05:19:44;;;;;;;8.38;3.22;;;30.40;94.90;;;;;;5128821;28;20043;-72
2022/07/31 05:22:35;;;;;;;8.75;4.35;;;30.60;94.60;;;;;;5121692;28;20080;-72
2022/07/31 05:25:22;;;;;;;5.60;3.58;;;30.60;94.40;;;;;;5111617;28;20560;-73
2022/07/31 05:27:50;;;;;;;10.32;3.17;;;30.80;94.20;;;;;;5111686;28;20078;-72
2022/07/31 05:30:18;;;;;;;6.75;3.10;;;30.90;93.80;;;;;;5128588;28;20054;-72
2022/07/31 05:32:46;;;;;;;6.05;3.50;;;31.00;93.70;;;;;;5111303;28;20053;-72
2022/07/31 05:35:13;;;;;;;7.45;3.38;;;31.00;93.70;;;;;;5128571;28;20100;-72
2022/07/31 05:37:41;;;;;;;7.30;3.20;;;31.20;93.60;;;;;;5111500;28;20551;-72
2022/07/31 05:40:10;;;;;;;9.68;4.05;;;31.30;93.40;;;;;;5095125;27;20425;-72
2022/07/31 05:43:14;;;;;;;8.13;3.55;;;31.40;93.10;;;;;;5078329;28;20055;-72
2022/07/31 05:46:00;;;;;;;5.38;3.40;;;31.40;92.90;;;;;;5127698;27;20067;-72
2022/07/31 05:48:28;;;;;;;8.68;3.63;;;31.40;92.60;;;;;;5132193;27;20046;-72
2022/07/31 05:50:56;;;;;;;6.78;3.13;;;31.50;92.20;;;;;;5132193;27;20047;-72
2022/07/31 05:53:24;;;;;;;6.43;3.00;;;31.50;91.80;;;;;;5115266;27;20727;-72
2022/07/31 05:56:11;;;;;;;5.35;3.03;;;31.60;91.60;;;;;;5123133;27;20404;-72
2022/07/31 05:58:41;;;;;;;5.97;2.88;;;31.70;91.50;;;;;;5115260;27;20116;-72
2022/07/31 06:01:09;;;;;;;7.78;3.72;;;31.90;91.40;;;;;;5115115;27;20047;-72
2022/07/31 06:03:39;;;;;;;3.67;2.55;;;31.90;91.20;;;;;;5115213;27;20071;-73
2022/07/31 06:06:13;;;;;;;9.18;3.42;;;32.00;91.20;;;;;;5115177;27;20075;-72
2022/07/31 06:08:41;;;;;;;5.53;3.08;;;32.20;90.80;;;;;;5097771;27;20043;-72
2022/07/31 06:11:09;;;;;;;8.35;2.90;;;32.30;90.50;;;;;;5114794;27;20058;-72
2022/07/31 06:13:37;;;;;;;8.07;2.95;;;32.30;90.00;;;;;;5131611;27;20138;-72
2022/07/31 06:16:17;;;;;;;6.35;3.20;;;32.40;89.50;;;;;;5131832;27;20043;-72
2022/07/31 06:18:45;;;;;;;5.78;3.30;;;32.60;88.90;;;;;;5097837;27;20129;-72
2022/07/31 06:21:12;;;;;;;6.07;3.15;;;32.50;88.20;;;;;;5114398;27;20142;-72
2022/07/31 06:23:42;;;;;;;5.93;2.83;;;32.70;88.20;;;;;;5114439;27;20042;-72
2022/07/31 06:26:21;;;;;;;7.13;3.45;;;32.80;88.30;;;;;;5131551;27;20124;-72
2022/07/31 06:28:48;;;;;;;8.05;2.60;;;32.80;87.10;;;;;;5131586;27;20047;-72
2022/07/31 06:31:21;;;;;;;5.07;2.78;;;32.80;86.70;;;;;;5114441;27;20046;-72
2022/07/31 06:33:53;;;;;;;4.60;2.78;;;32.90;86.80;;;;;;5114835;27;20039;-72
2022/07/31 06:36:24;;;;;;;5.68;2.78;;;32.90;86.80;;;;;;5114263;27;20146;-72
2022/07/31 06:38:56;;;;;;;5.72;2.50;;;32.90;86.80;;;;;;5132174;27;20039;-72
2022/07/31 06:44:29;;;;;;;7.97;3.65;;;32.90;86.00;;;;;;5152180;27;20054;-72
2022/07/31 06:47:17;;;;;;;5.15;3.13;;;33.10;85.50;;;;;;5153274;27;20090;-72
2022/07/31 06:49:52;;;;;;;9.15;3.67;;;33.20;85.00;;;;;;5118472;27;20050;-73
2022/07/31 06:52:22;;;;;;;5.78;2.63;;;33.20;84.50;;;;;;5100112;27;20508;-72
2022/07/31 06:54:49;;;;;;;5.07;2.90;;;33.30;84.30;;;;;;5117338;27;20051;-72
2022/07/31 06:57:17;;;;;;;5.30;2.28;;;33.40;84.40;;;;;;5152782;27;20384;-72
2022/07/31 06:59:46;;;;;;;5.25;3.42;;;33.40;84.40;;;;;;5100398;27;20501;-73
2022/07/31 07:02:13;;;;;;;6.35;3.17;;;33.40;84.70;;;;;;5133872;27;20039;-72
2022/07/31 07:04:41;;;;;;;4.28;2.72;;;33.40;84.90;;;;;;5117068;27;20073;-72
2022/07/31 07:07:09;;;;;;;6.78;2.65;;;33.50;85.30;;;;;;5134161;27;20054;-72
2022/07/31 07:09:36;;;;;;;4.95;2.50;;;33.50;85.20;;;;;;5117449;27;20047;-72
2022/07/31 07:12:04;;;;;;;4.15;2.78;;;33.60;84.90;;;;;;5099685;27;20481;-71
2022/07/31 07:14:32;;;;;;;4.35;2.60;;;33.60;84.90;;;;;;5100163;27;20457;-72
2022/07/31 07:17:04;;;;;;;4.90;2.95;;;33.80;84.60;;;;;;5099933;27;20047;-72
2022/07/31 07:19:33;;;;;;;7.70;2.97;;;33.80;84.30;;;;;;5116766;27;20094;-72
2022/07/31 07:22:01;;;;;;;6.55;3.03;;;33.90;82.40;;;;;;5133475;27;20121;-73
2022/07/31 07:24:29;;;;;;;5.07;2.35;;;33.90;82.40;;;;;;5116989;27;20042;-72
2022/07/31 07:27:02;;;;;;;4.40;2.42;;;33.70;82.20;;;;;;5116771;27;20393;-72
2022/07/31 07:29:30;;;;;;;5.93;2.75;;;33.90;82.00;;;;;;5106273;27;20212;-72
2022/07/31 07:31:58;;;;;;;6.60;2.42;;;33.90;82.00;;;;;;5133388;27;20047;-73
2022/07/31 07:34:26;;;;;;;5.00;2.13;;;33.80;82.20;;;;;;5152138;27;20038;-72
2022/07/31 07:36:54;;;;;;;6.60;2.25;;;34.00;82.30;;;;;;5116441;27;20427;-72
2022/07/31 07:39:27;;;;;;;7.93;3.80;;;34.10;82.20;;;;;;5116165;27;20069;-72
2022/07/31 07:41:55;;;;;;;6.90;2.60;;;34.10;82.50;;;;;;5116034;27;20495;-72
2022/07/31 07:44:23;;;;;;;8.27;3.30;;;34.10;82.20;;;;;;5150693;27;20673;-72
2022/07/31 07:46:51;;;;;;;6.28;2.45;;;34.10;81.70;;;;;;5116184;27;20364;-72
2022/07/31 07:49:20;;;;;;;4.53;2.20;;;34.10;81.30;;;;;;5116441;27;20381;-72
2022/07/31 07:52:05;;;;;;;6.18;2.42;;;34.20;81.40;;;;;;5119202;27;20053;-72
2022/07/31 07:54:41;;;;;;;11.07;3.10;;;34.30;81.30;;;;;;5117387;27;20047;-72
2022/07/31 07:57:28;;;;;;;4.30;2.90;;;34.30;81.60;;;;;;5151718;27;20163;-72
2022/07/31 08:00:15;;;;;;;5.25;2.67;;;34.40;81.90;;;;;;5118950;27;20126;-72
2022/07/31 08:02:46;;;;;;;6.50;2.45;;;34.50;81.30;;;;;;5132556;27;20054;-72
2022/07/31 08:05:15;;;;;;;6.20;2.47;;;34.50;81.10;;;;;;5115921;27;20510;-72
2022/07/31 08:07:44;;;;;;;3.40;2.22;;;34.50;80.30;;;;;;5133173;27;20034;-72
2022/07/31 08:10:38;;;;;;;3.88;2.10;;;34.50;80.50;;;;;;5136606;27;20043;-73
2022/07/31 08:13:10;;;;;;;5.45;2.67;;;34.50;80.50;;;;;;5115627;27;20055;-73
2022/07/31 08:16:16;;;;;;;7.90;2.70;;;34.50;80.10;;;;;;5029785;28;20048;-72
2022/07/31 08:18:50;;;;;;;4.00;2.60;;;34.60;79.40;;;;;;5030613;28;20065;-72
2022/07/31 08:21:17;;;;;;;4.05;2.45;;;34.50;79.30;;;;;;5060292;27;20512;-73
2022/07/31 08:23:46;;;;;;;5.35;3.00;;;34.50;78.80;;;;;;5149942;27;20065;-72
2022/07/31 08:26:17;;;;;;;6.95;3.78;;;34.50;79.30;;;;;;5149760;27;20115;-72
2022/07/31 08:28:44;;;;;;;4.95;2.88;;;34.50;79.50;;;;;;5132575;27;20059;-72
2022/07/31 08:31:12;;;;;;;5.07;2.85;;;34.50;79.50;;;;;;5098224;27;20107;-72
2022/07/31 08:33:51;;;;;;;6.95;2.85;;;34.50;79.70;;;;;;5132167;27;20066;-74
2022/07/31 08:36:19;;;;;;;11.05;3.20;;;34.40;79.80;;;;;;5149761;27;20043;-72
2022/07/31 08:38:47;;;;;;;4.45;2.15;;;34.30;79.70;;;;;;5131800;27;20345;-72
2022/07/31 08:41:40;;;;;;;3.13;2.00;;;34.40;80.30;;;;;;5151170;27;20841;-72
2022/07/31 08:44:09;;;;;;;6.53;2.90;;;34.50;80.20;;;;;;5132246;27;20437;-72
2022/07/31 08:46:38;;;;;;;5.45;2.50;;;34.50;80.30;;;;;;5115478;27;20058;-72
2022/07/31 08:49:08;;;;;;;7.28;3.33;;;34.60;80.40;;;;;;5098737;27;20039;-73
2022/07/31 08:51:38;;;;;;;5.72;2.78;;;34.80;80.10;;;;;;5114743;27;20055;-73
2022/07/31 08:54:46;;;;;;;4.63;2.28;;;34.80;80.40;;;;;;5120728;27;20039;-72
2022/07/31 08:57:14;;;;;;;3.70;2.63;;;34.70;80.80;;;;;;5132622;27;20057;-72
2022/07/31 08:59:42;;;;;;;4.97;2.42;;;34.90;80.30;;;;;;5098288;27;20399;-73
2022/07/31 09:02:12;;;;;;;8.48;2.63;;;35.00;80.40;;;;;;5132017;27;20564;-72
2022/07/31 09:04:57;;;;;;;8.40;2.50;;;34.90;79.90;;;;;;5131156;27;20538;-73
2022/07/31 09:07:25;;;;;;;12.95;2.55;;;34.80;80.20;;;;;;5132528;27;20169;-72
2022/07/31 09:09:53;;;;;;;6.95;2.80;;;34.80;80.50;;;;;;5115126;27;20400;-72
2022/07/31 09:12:32;;;;;;;4.00;2.50;;;34.70;80.80;;;;;;5132368;27;20434;-72
2022/07/31 09:15:20;;;;;;;4.75;2.22;;;34.80;80.60;;;;;;5119387;27;20057;-72
2022/07/31 09:17:48;;;;;;;6.55;2.53;;;34.80;80.50;;;;;;5102490;27;20049;-72
2022/07/31 09:20:21;;;;;;;4.45;3.00;;;34.90;80.90;;;;;;5119109;27;20138;-72
2022/07/31 09:23:09;;;;;;;4.35;2.50;;;34.80;81.00;;;;;;5119485;27;20144;-72
2022/07/31 09:25:56;;;;;;;4.50;2.58;;;34.80;81.10;;;;;;5118911;27;20043;-72
2022/07/31 09:28:39;;;;;;;5.70;3.42;;;34.90;81.20;;;;;;5136367;27;20115;-72
2022/07/31 09:31:09;;;;;;;7.25;2.78;;;34.90;81.40;;;;;;5119185;27;20047;-72
2022/07/31 09:33:58;;;;;;;4.70;2.25;;;34.90;81.50;;;;;;5104546;27;20049;-73
2022/07/31 09:36:52;;;;;;;6.25;2.92;;;34.80;81.70;;;;;;5108586;27;20425;-73
2022/07/31 09:39:50;;;;;;;4.20;2.75;;;34.60;81.90;;;;;;5139502;27;20059;-72
2022/07/31 09:42:47;;;;;;;6.65;2.83;;;34.70;82.30;;;;;;5111431;27;20053;-72
2022/07/31 09:45:22;;;;;;;4.55;2.55;;;34.70;82.80;;;;;;5118751;27;20107;-72
2022/07/31 09:48:07;;;;;;;4.43;2.20;;;34.60;83.00;;;;;;5119076;27;20061;-72
2022/07/31 09:50:34;;;;;;;7.32;3.33;;;34.40;83.50;;;;;;5136801;27;20038;-73
2022/07/31 09:53:03;;;;;;;3.72;2.47;;;34.40;83.90;;;;;;5139161;27;20050;-72
2022/07/31 09:55:57;;;;;;;4.30;2.55;;;34.30;84.00;;;;;;5156367;27;20042;-72
2022/07/31 09:58:25;;;;;;;9.05;3.20;;;34.10;84.50;;;;;;5156251;27;20041;-73
2022/07/31 10:00:53;;;;;;;5.32;2.60;;;34.00;84.60;;;;;;5156347;27;20034;-72
2022/07/31 10:03:24;;;;;;;4.03;2.25;;;33.90;84.50;;;;;;5156127;27;20045;-72
2022/07/31 10:05:54;;;;;;;3.72;2.50;;;34.00;83.60;;;;;;5139113;27;20395;-72
2022/07/31 10:08:22;;;;;;;3.97;2.25;;;34.10;83.40;;;;;;5156343;27;20038;-73
2022/07/31 10:11:11;;;;;;;3.90;1.90;;;34.40;83.00;;;;;;5141423;27;20049;-72
2022/07/31 10:13:50;;;;;;;4.72;1.88;;;34.30;82.80;;;;;;5138451;27;20105;-73
2022/07/31 10:16:21;;;;;;;4.35;2.33;;;34.40;82.10;;;;;;5138926;27;20058;-72
2022/07/31 10:19:22;;;;;;;6.25;2.67;;;34.60;82.40;;;;;;5139666;27;20534;-72
2022/07/31 10:22:11;;;;;;;5.68;2.33;;;34.50;80.90;;;;;;5174766;27;20220;-72
2022/07/31 10:24:46;;;;;;;5.10;1.83;;;34.50;80.90;;;;;;5138753;27;20106;-73
2022/07/31 10:27:15;;;;;;;7.90;2.30;;;34.60;80.70;;;;;;5120858;27;20042;-72
2022/07/31 10:29:45;;;;;;;6.32;2.00;;;34.60;80.30;;;;;;5138491;27;20050;-72
2022/07/31 10:32:13;;;;;;;4.93;2.53;;;34.60;80.40;;;;;;5121259;27;20065;-72
2022/07/31 10:35:21;;;;;;;5.13;2.00;;;34.60;80.40;;;;;;5089413;28;20139;-73
2022/07/31 10:38:11;;;;;;;4.80;2.00;;;34.60;79.90;;;;;;5072165;28;20047;-73
2022/07/31 10:41:32;;;;;;;5.25;2.67;;;34.50;79.60;;;;;;5122188;27;20187;-73
2022/07/31 10:44:08;;;;;;;5.50;2.30;;;34.50;79.80;;;;;;5120480;27;20050;-72
2022/07/31 10:46:46;;;;;;;5.07;1.98;;;34.40;80.70;;;;;;5122713;27;20069;-72
2022/07/31 10:49:47;;;;;;;6.75;2.08;;;34.50;80.80;;;;;;5121230;27;20050;-73
2022/07/31 10:52:36;;;;;;;4.90;1.98;;;34.40;80.20;;;;;;5108841;27;20082;-73
2022/07/31 10:55:36;;;;;;;3.92;1.80;;;34.40;79.20;;;;;;5111337;27;20080;-72
2022/07/31 10:58:29;;;;;;;4.40;2.25;;;34.40;77.50;;;;;;5134473;27;20046;-72
2022/07/31 11:01:09;;;;;;;6.65;2.67;;;34.40;77.20;;;;;;5152945;27;20088;-72
2022/07/31 11:04:06;;;;;;;6.20;1.58;;;34.30;76.70;;;;;;5129211;27;20125;-72
2022/07/31 11:06:53;;;;;;;3.15;2.08;;;34.40;75.30;;;;;;5116885;27;20393;-72
2022/07/31 11:09:47;;;;;;;13.82;3.30;;;34.50;74.80;;;;;;5122038;27;20078;-72
2022/07/31 11:13:06;;;;;;;5.55;2.22;;;34.50;75.10;;;;;;5151700;27;20046;-72
2022/07/31 11:16:05;;;;;;;5.07;3.15;;;34.40;74.70;;;;;;5117314;27;20065;-72
2022/07/31 11:19:12;;;;;;;8.07;2.47;;;34.40;75.10;;;;;;5051101;28;20111;-72
2022/07/31 11:21:41;;;;;;;4.15;2.20;;;34.50;75.60;;;;;;5051137;28;20064;-72
2022/07/31 11:24:20;;;;;;;6.53;1.77;;;34.50;75.40;;;;;;5075213;27;20485;-71
2022/07/31 11:26:52;;;;;;;5.30;2.03;;;34.60;74.60;;;;;;5099828;27;20046;-72
2022/07/31 11:29:37;;;;;;;7.55;2.30;;;34.70;74.70;;;;;;5116427;27;20508;-72
2022/07/31 11:32:04;;;;;;;6.63;2.38;;;34.50;73.90;;;;;;5116919;27;20054;-71
2022/07/31 11:34:52;;;;;;;2.97;2.22;;;34.60;73.70;;;;;;5151891;27;20042;-72
2022/07/31 11:37:25;;;;;;;3.42;1.38;;;34.60;73.80;;;;;;5099927;27;20099;-73
2022/07/31 11:39:54;;;;;;;3.95;2.10;;;34.60;72.30;;;;;;5129468;27;20059;-72
2022/07/31 11:42:23;;;;;;;3.25;2.00;;;34.60;72.20;;;;;;5142823;27;20038;-72
2022/07/31 11:44:51;;;;;;;6.85;2.85;;;34.60;70.00;;;;;;5151877;27;20042;-73
2022/07/31 11:47:19;;;;;;;5.68;2.42;;;34.60;72.30;;;;;;5116620;27;20716;-72
2022/07/31 11:49:47;;;;;;;4.03;1.90;;;34.60;72.90;;;;;;5152085;27;20770;-72
2022/07/31 11:52:15;;;;;;;3.92;2.17;;;34.70;71.00;;;;;;5150489;27;20089;-72
2022/07/31 11:54:42;;;;;;;4.35;2.30;;;34.50;71.80;;;;;;5151587;27;20133;-72
2022/07/31 11:57:10;;;;;;;5.30;3.03;;;34.50;72.80;;;;;;5133492;27;20042;-72
2022/07/31 11:59:38;;;;;;;3.60;2.47;;;34.60;73.40;;;;;;5132996;27;20140;-72
2022/07/31 12:02:08;;;;;;;5.50;2.20;;;34.40;74.90;;;;;;5129558;27;20045;-71
2022/07/31 12:04:37;;;;;;;6.00;2.55;;;34.40;75.20;;;;;;5138872;27;20065;-71
2022/07/31 12:07:07;;;;;;;4.07;2.30;;;34.40;75.60;;;;;;5127466;27;20051;-73
2022/07/31 12:09:36;;;;;;;5.82;2.13;;;34.40;75.30;;;;;;5132297;27;20062;-72
2022/07/31 12:12:04;;;;;;;4.03;1.88;;;34.30;76.00;;;;;;5112482;27;20039;-71
2022/07/31 12:14:38;;;;;;;2.75;1.85;;;34.20;76.40;;;;;;5112079;27;20051;-72
2022/07/31 12:17:17;;;;;;;5.72;3.05;;;33.90;77.10;;;;;;5112160;27;20142;-72
2022/07/31 12:19:45;;;;;;;2.88;1.65;;;33.80;77.50;;;;;;5129393;27;20534;-72
2022/07/31 12:22:19;;;;;;;7.35;2.00;;;33.80;77.40;;;;;;5111673;27;20171;-71
2022/07/31 12:24:59;;;;;;;4.28;1.73;;;33.80;77.40;;;;;;5112211;27;20817;-72
2022/07/31 12:27:27;;;;;;;5.20;1.77;;;33.60;76.80;;;;;;5130360;27;20373;-74
2022/07/31 12:29:54;;;;;;;5.30;1.40;;;33.60;77.10;;;;;;5095236;27;20488;-72
2022/07/31 12:32:26;;;;;;;4.30;1.80;;;33.70;77.10;;;;;;5111986;27;20093;-73
2022/07/31 12:35:04;;;;;;;2.60;1.40;;;33.60;78.00;;;;;;5129402;27;20039;-72
2022/07/31 12:37:45;;;;;;;6.43;2.05;;;33.50;78.60;;;;;;5112039;27;20051;-73
2022/07/31 12:40:25;;;;;;;7.57;1.88;;;33.50;78.20;;;;;;5123696;27;20089;-72
2022/07/31 12:42:53;;;;;;;7.20;1.60;;;33.50;78.20;;;;;;5115171;27;20045;-73
2022/07/31 12:45:50;;;;;;;8.45;1.95;;;33.40;78.20;;;;;;5132335;27;20643;-73
2022/07/31 12:48:18;;;;;;;3.03;2.10;;;33.50;78.50;;;;;;5131098;27;20043;-73
2022/07/31 12:50:45;;;;;;;4.65;2.00;;;33.60;78.30;;;;;;5149494;27;20528;-73
2022/07/31 12:53:13;;;;;;;6.53;2.08;;;33.50;78.30;;;;;;5150839;27;20586;-74
2022/07/31 12:55:41;;;;;;;5.43;2.30;;;33.50;78.30;;;;;;5149829;27;20127;-74
2022/07/31 12:58:09;;;;;;;8.75;2.25;;;33.50;78.30;;;;;;5130343;27;20193;-73
2022/07/31 13:00:36;;;;;;;7.93;1.90;;;33.50;77.60;;;;;;5111667;28;20452;-73
2022/07/31 13:03:06;;;;;;;4.18;1.70;;;33.40;77.00;;;;;;5130142;27;20047;-73
2022/07/31 13:05:33;;;;;;;5.82;1.75;;;33.30;77.60;;;;;;5094539;28;20745;-75
2022/07/31 13:08:01;;;;;;;4.80;2.00;;;33.40;78.00;;;;;;5094707;28;20054;-73
2022/07/31 13:10:29;;;;;;;5.25;1.90;;;33.30;78.10;;;;;;5111821;28;20112;-73
2022/07/31 13:12:57;;;;;;;4.95;2.15;;;33.30;78.40;;;;;;5128951;28;20073;-72
2022/07/31 13:15:33;;;;;;;9.35;2.08;;;33.10;78.70;;;;;;5111846;28;20114;-74
2022/07/31 13:18:01;;;;;;;7.30;1.83;;;33.20;80.70;;;;;;5094567;28;20051;-73
2022/07/31 13:20:29;;;;;;;6.00;1.90;;;33.10;81.00;;;;;;5129622;28;20035;-73